createdAt,value
2023-04-14T00:00:03.080Z,938.29
2023-04-14T00:05:03.001Z,938.35
2023-04-14T00:10:03.886Z,938.49
2023-04-14T00:15:03.336Z,938.54
2023-04-14T00:20:03.354Z,938.56
2023-04-14T00:25:03.403Z,938.54
2023-04-14T00:30:03.717Z,938.51
2023-04-14T00:35:03.101Z,938.51
2023-04-14T00:40:03.284Z,938.52
2023-04-14T00:45:02.958Z,938.45
2023-04-14T00:50:03.333Z,938.31
2023-04-14T00:55:03.157Z,938.29
2023-04-14T01:00:02.967Z,938.49
2023-04-14T01:05:03.109Z,938.47
2023-04-14T01:10:03.135Z,938.27
2023-04-14T01:15:02.971Z,938.31
2023-04-14T01:20:03.078Z,938.49
2023-04-14T01:25:04.678Z,938.45
2023-04-14T01:30:02.994Z,938.56
2023-04-14T01:35:06.066Z,938.56
2023-04-14T01:40:04.097Z,938.56
2023-04-14T01:45:03.051Z,938.60
2023-04-14T01:50:03.159Z,938.56
2023-04-14T01:55:03.122Z,938.56
2023-04-14T02:00:03.126Z,938.49
2023-04-14T02:05:03.997Z,938.45
2023-04-14T02:10:03.143Z,938.31
2023-04-14T02:15:03.204Z,938.31
2023-04-14T02:20:03.068Z,938.35
2023-04-14T02:25:03.024Z,938.37
2023-04-14T02:30:03.153Z,938.49
2023-04-14T02:35:02.995Z,938.54
2023-04-14T02:40:03.058Z,938.54
2023-04-14T02:45:02.985Z,938.58
2023-04-14T02:50:03.136Z,938.54
2023-04-14T02:55:03.061Z,938.62
2023-04-14T03:00:03.088Z,938.70
2023-04-14T03:05:03.034Z,938.66
2023-04-14T03:10:03.120Z,938.70
2023-04-14T03:15:03.072Z,938.72
2023-04-14T03:20:03.154Z,938.72
2023-04-14T03:25:02.971Z,938.74
2023-04-14T03:30:03.118Z,938.78
2023-04-14T03:35:02.916Z,938.76
2023-04-14T03:40:03.138Z,938.74
2023-04-14T03:45:03.132Z,938.74
2023-04-14T03:50:03.038Z,938.72
2023-04-14T03:55:02.998Z,938.64
2023-04-14T04:00:03.006Z,938.68
2023-04-14T04:05:03.067Z,938.70
2023-04-14T04:10:03.021Z,938.68
2023-04-14T04:15:04.820Z,938.68
2023-04-14T04:20:03.168Z,938.62
2023-04-14T04:25:02.971Z,938.64
2023-04-14T04:30:03.203Z,938.64
2023-04-14T04:35:02.973Z,938.66
2023-04-14T04:40:02.966Z,938.68
2023-04-14T04:45:02.967Z,938.60
2023-04-14T04:50:03.229Z,938.66
2023-04-14T04:55:02.946Z,938.68
2023-04-14T05:00:03.056Z,938.68
2023-04-14T05:05:02.975Z,938.68
2023-04-14T05:10:02.954Z,938.66
2023-04-14T05:15:02.949Z,938.66
2023-04-14T05:20:03.061Z,938.60
2023-04-14T05:25:04.034Z,938.62
2023-04-14T05:30:03.186Z,938.62
2023-04-14T05:35:02.985Z,938.58
2023-04-14T05:40:03.028Z,938.58
2023-04-14T05:45:02.876Z,938.60
2023-04-14T05:50:02.995Z,938.52
2023-04-14T05:55:02.955Z,938.49
2023-04-14T06:00:03.303Z,938.37
2023-04-14T06:05:03.178Z,938.33
2023-04-14T06:10:03.161Z,938.31
2023-04-14T06:15:03.000Z,938.21
2023-04-14T06:20:03.117Z,938.25
2023-04-14T06:25:02.933Z,938.19
2023-04-14T06:30:03.029Z,938.23
2023-04-14T06:35:02.954Z,938.23
2023-04-14T06:40:03.008Z,938.27
2023-04-14T06:45:02.973Z,938.29
2023-04-14T06:50:03.263Z,938.29
2023-04-14T06:55:02.963Z,938.31
2023-04-14T07:00:02.959Z,938.29
2023-04-14T07:05:03.121Z,938.31
2023-04-14T07:10:03.095Z,938.45
2023-04-14T07:15:02.974Z,938.49
2023-04-14T07:20:03.077Z,938.37
2023-04-14T07:25:03.027Z,938.31
2023-04-14T07:30:03.157Z,938.29
2023-04-14T07:35:02.962Z,938.31
2023-04-14T07:40:03.008Z,938.31
2023-04-14T07:45:03.001Z,938.31
2023-04-14T07:50:03.101Z,938.37
2023-04-14T07:55:02.893Z,938.54
2023-04-14T08:00:03.193Z,938.60
2023-04-14T08:05:02.952Z,938.60
2023-04-14T08:10:03.076Z,938.58
2023-04-14T08:15:02.999Z,938.62
2023-04-14T08:20:03.121Z,938.66
2023-04-14T08:25:02.960Z,938.68
2023-04-14T08:30:03.075Z,938.66
2023-04-14T08:35:36.554Z,938.70
2023-04-14T08:40:03.153Z,938.76
2023-04-14T08:45:02.920Z,938.84
2023-04-14T08:50:03.011Z,938.92
2023-04-14T08:55:02.999Z,939.00
2023-04-14T09:00:03.066Z,938.98
2023-04-14T09:05:03.078Z,939.04
2023-04-14T09:10:03.126Z,939.07
2023-04-14T09:15:02.981Z,939.15
2023-04-14T09:20:34.370Z,939.21
2023-04-14T09:25:03.004Z,939.25
2023-04-14T09:30:03.073Z,939.35
2023-04-14T09:35:02.953Z,939.39
2023-04-14T09:40:03.003Z,939.45
2023-04-14T09:45:02.998Z,939.51
2023-04-14T09:50:03.055Z,939.56
2023-04-14T09:55:02.845Z,939.66
2023-04-14T10:05:03.025Z,939.78
2023-04-14T10:10:03.135Z,939.84
2023-04-14T10:15:02.923Z,939.90
2023-04-14T10:20:02.989Z,939.94
2023-04-14T10:25:02.942Z,939.96
2023-04-14T10:30:03.048Z,940.00
2023-04-14T10:35:02.971Z,940.00
2023-04-14T10:40:03.041Z,939.98
2023-04-14T10:45:02.971Z,940.02
2023-04-14T10:50:03.047Z,940.06
2023-04-14T10:55:02.957Z,940.08
2023-04-14T11:00:03.024Z,940.11
2023-04-14T11:05:02.935Z,940.06
2023-04-14T11:10:03.198Z,940.02
2023-04-14T11:15:02.938Z,940.04
2023-04-14T11:20:03.187Z,940.04
2023-04-14T11:25:02.950Z,940.09
2023-04-14T11:30:03.076Z,940.15
2023-04-14T11:35:02.933Z,940.21
2023-04-14T11:40:03.193Z,940.25
2023-04-14T11:45:03.062Z,940.27
2023-04-14T11:50:03.092Z,940.27
2023-04-14T11:55:03.103Z,940.29
2023-04-14T12:00:03.057Z,940.31
2023-04-14T12:05:03.139Z,940.39
2023-04-14T12:10:03.110Z,940.43
2023-04-14T12:15:03.075Z,940.43
2023-04-14T12:20:03.030Z,940.45
2023-04-14T12:25:03.105Z,940.47
2023-04-14T12:30:03.140Z,940.55
2023-04-14T12:35:02.978Z,940.53
2023-04-14T12:40:03.066Z,940.49
2023-04-14T12:45:02.998Z,940.53
2023-04-14T12:50:08.027Z,940.53
2023-04-14T12:55:03.490Z,940.51
2023-04-14T13:00:03.104Z,940.61
2023-04-14T13:05:02.991Z,940.64
2023-04-14T13:10:03.047Z,940.64
2023-04-14T13:15:04.603Z,940.68
2023-04-14T13:20:03.228Z,940.70
2023-04-14T13:25:03.045Z,940.76
2023-04-14T13:30:03.013Z,940.72
2023-04-14T13:35:03.007Z,940.74
2023-04-14T13:40:03.108Z,940.74
2023-04-14T13:45:03.033Z,940.72
2023-04-14T13:50:03.147Z,940.68
2023-04-14T13:55:02.945Z,940.70
2023-04-14T14:00:03.077Z,940.74
2023-04-14T14:05:03.034Z,940.76
2023-04-14T14:10:03.071Z,940.70
2023-04-14T14:15:03.090Z,940.70
2023-04-14T14:20:03.045Z,940.72
2023-04-14T14:25:15.612Z,940.70
2023-04-14T14:30:03.035Z,940.74
2023-04-14T14:35:03.099Z,940.64
2023-04-14T14:40:03.066Z,940.57
2023-04-14T14:45:02.963Z,940.64
2023-04-14T14:50:05.217Z,940.64
2023-04-14T14:55:03.031Z,940.57
2023-04-14T15:00:03.156Z,940.57
2023-04-14T15:05:02.924Z,940.51
2023-04-14T15:10:03.039Z,940.49
2023-04-14T15:15:03.043Z,940.45
2023-04-14T15:20:03.170Z,940.39
2023-04-14T15:25:03.065Z,940.39
2023-04-14T15:30:03.292Z,940.37
2023-04-14T15:35:03.168Z,940.35
2023-04-14T15:40:03.151Z,940.35
2023-04-14T15:45:02.975Z,940.31
2023-04-14T15:50:09.411Z,940.25
2023-04-14T15:55:02.993Z,940.25
2023-04-14T16:00:03.228Z,940.21
2023-04-14T16:05:03.074Z,940.15
2023-04-14T16:10:03.124Z,940.15
2023-04-14T16:15:03.009Z,940.09
2023-04-14T16:20:03.545Z,940.09
2023-04-14T16:25:04.037Z,940.06
2023-04-14T16:30:04.110Z,939.98
2023-04-14T16:35:03.028Z,939.94
2023-04-14T16:40:03.168Z,939.86
2023-04-14T16:45:03.967Z,939.80
2023-04-14T16:50:04.142Z,939.72
2023-04-14T16:55:02.981Z,939.64
2023-04-14T17:00:03.186Z,939.66
2023-04-14T17:05:03.202Z,939.58
2023-04-14T17:10:03.040Z,939.56
2023-04-14T17:15:02.962Z,939.49
2023-04-14T17:20:07.974Z,939.41
2023-04-14T17:25:02.966Z,939.33
2023-04-14T17:30:03.153Z,939.29
2023-04-14T17:35:04.038Z,939.21
2023-04-14T17:40:03.132Z,939.21
2023-04-14T17:45:03.108Z,939.15
2023-04-14T17:50:03.007Z,939.21
2023-04-14T17:55:03.214Z,939.19
2023-04-14T18:00:03.000Z,939.13
2023-04-14T18:05:02.956Z,939.13
2023-04-14T18:10:03.200Z,939.15
2023-04-14T18:15:03.010Z,939.17
2023-04-14T18:20:03.206Z,939.13
2023-04-14T18:25:02.959Z,939.13
2023-04-14T18:30:03.248Z,939.09
2023-04-14T18:35:02.864Z,939.11
2023-04-14T18:40:03.081Z,939.07
2023-04-14T18:45:03.018Z,939.11
2023-04-14T18:50:03.233Z,939.13
2023-04-14T18:55:03.061Z,939.17
2023-04-14T19:00:02.968Z,939.21
2023-04-14T19:05:03.119Z,939.27
2023-04-14T19:10:03.097Z,939.33
2023-04-14T19:15:02.978Z,939.41
2023-04-14T19:20:03.253Z,939.39
2023-04-14T19:25:02.999Z,939.39
2023-04-14T19:30:03.084Z,939.47
2023-04-14T19:35:03.023Z,939.45
2023-04-14T19:40:03.078Z,939.47
2023-04-14T19:45:02.969Z,939.54
2023-04-14T19:50:03.182Z,939.60
2023-04-14T19:55:02.968Z,939.60
2023-04-14T20:00:04.014Z,939.62
2023-04-14T20:05:03.073Z,939.66
2023-04-14T20:10:03.007Z,939.70
2023-04-14T20:15:03.093Z,939.76
2023-04-14T20:20:03.063Z,939.76
2023-04-14T20:25:02.970Z,939.78
2023-04-14T20:30:03.041Z,939.78
2023-04-14T20:35:02.820Z,939.80
2023-04-14T20:40:03.155Z,939.82
2023-04-14T20:45:02.975Z,939.82
2023-04-14T20:50:03.095Z,939.86
2023-04-14T20:55:02.999Z,939.86
2023-04-14T21:00:03.133Z,939.90
2023-04-14T21:05:03.026Z,939.94
2023-04-14T21:10:02.994Z,939.94
2023-04-14T21:15:26.506Z,940.00
2023-04-14T21:20:03.049Z,940.04
2023-04-14T21:25:03.037Z,940.00
2023-04-14T21:30:03.153Z,939.98
2023-04-14T21:35:02.961Z,940.04
2023-04-14T21:40:02.992Z,939.96
2023-04-14T21:45:02.965Z,940.04
2023-04-14T21:50:03.056Z,940.17
2023-04-14T21:55:03.073Z,940.21
2023-04-14T22:00:03.118Z,940.21
2023-04-14T22:05:02.972Z,940.25
2023-04-14T22:10:03.109Z,940.33
2023-04-14T22:15:02.947Z,940.37
2023-04-14T22:20:03.023Z,940.39
2023-04-14T22:25:02.986Z,940.41
2023-04-14T22:30:03.086Z,940.43
2023-04-14T22:35:02.967Z,940.47
2023-04-14T22:40:02.985Z,940.53
2023-04-14T22:45:02.861Z,940.61
2023-04-14T22:50:03.171Z,940.68
2023-04-14T22:55:02.936Z,940.66
2023-04-14T23:00:02.998Z,940.66
2023-04-14T23:05:03.049Z,940.66
2023-04-14T23:10:03.167Z,940.72
2023-04-14T23:15:02.987Z,940.74
2023-04-14T23:20:03.191Z,940.72
2023-04-14T23:25:02.868Z,940.76
2023-04-14T23:30:02.981Z,940.82
2023-04-14T23:35:03.005Z,940.90
2023-04-14T23:40:03.133Z,941.08
2023-04-14T23:45:03.195Z,941.19
2023-04-14T23:50:03.157Z,941.23
2023-04-14T23:55:04.715Z,941.25
